createdAt,value
2023-01-22T00:00:06.750Z,49.42
2023-01-22T00:02:42.035Z,50.75
2023-01-22T00:05:09.817Z,46.00
2023-01-22T00:07:36.418Z,52.40
2023-01-22T00:10:03.014Z,51.13
2023-01-22T00:12:29.884Z,44.20
2023-01-22T00:14:56.495Z,49.40
2023-01-22T00:17:23.534Z,46.95
2023-01-22T00:19:50.114Z,45.83
2023-01-22T00:22:16.616Z,45.55
2023-01-22T00:24:43.518Z,39.10
2023-01-22T00:27:10.352Z,48.50
2023-01-22T00:29:36.952Z,46.33
2023-01-22T00:32:03.981Z,48.78
2023-01-22T00:34:30.874Z,46.53
2023-01-22T00:36:58.127Z,41.95
2023-01-22T00:39:24.865Z,47.22
2023-01-22T00:41:52.027Z,43.83
2023-01-22T00:44:18.746Z,43.03
2023-01-22T00:46:45.369Z,47.08
2023-01-22T00:49:12.624Z,43.53
2023-01-22T00:51:39.548Z,47.72
2023-01-22T00:54:06.553Z,40.50
2023-01-22T00:56:33.611Z,45.53
2023-01-22T00:59:00.228Z,39.72
2023-01-22T01:01:26.973Z,48.28
2023-01-22T01:03:53.648Z,38.00
2023-01-22T01:06:22.289Z,36.53
2023-01-22T01:08:50.077Z,42.50
2023-01-22T01:11:22.314Z,46.38
2023-01-22T01:13:50.231Z,41.67
2023-01-22T01:16:23.658Z,43.00
2023-01-22T01:18:50.435Z,42.83
2023-01-22T01:21:17.984Z,43.58
2023-01-22T01:23:45.359Z,47.55
2023-01-22T01:26:14.033Z,51.00
2023-01-22T01:28:41.724Z,45.88
2023-01-22T01:31:11.108Z,45.60
2023-01-22T01:33:38.133Z,41.50
2023-01-22T01:36:07.595Z,36.50
2023-01-22T01:38:34.349Z,35.63
2023-01-22T01:41:01.209Z,39.15
2023-01-22T01:43:28.339Z,42.70
2023-01-22T01:45:57.562Z,40.47
2023-01-22T01:48:31.537Z,44.88
2023-01-22T01:51:07.425Z,39.22
2023-01-22T01:53:34.765Z,42.22
2023-01-22T01:56:05.463Z,45.00
2023-01-22T01:58:35.829Z,49.60
2023-01-22T02:01:10.260Z,45.25
2023-01-22T02:03:39.105Z,46.15
2023-01-22T02:06:09.205Z,34.72
2023-01-22T02:08:36.068Z,29.35
2023-01-22T02:11:03.579Z,32.05
2023-01-22T02:13:33.866Z,35.10
2023-01-22T02:16:00.754Z,33.60
2023-01-22T02:18:27.725Z,29.13
2023-01-22T02:21:00.005Z,27.00
2023-01-22T02:23:30.023Z,30.00
2023-01-22T02:25:58.157Z,28.52
2023-01-22T02:28:24.988Z,27.80
2023-01-22T02:30:54.130Z,24.70
2023-01-22T02:33:20.757Z,34.35
2023-01-22T02:35:47.322Z,30.30
2023-01-22T02:38:14.177Z,31.35
2023-01-22T02:40:49.094Z,33.78
2023-01-22T02:43:18.985Z,28.30
2023-01-22T02:45:45.750Z,28.75
2023-01-22T02:48:12.941Z,29.58
2023-01-22T02:50:39.700Z,30.20
2023-01-22T02:53:06.383Z,29.20
2023-01-22T02:55:34.041Z,28.25
2023-01-22T02:58:00.631Z,28.52
2023-01-22T03:00:27.279Z,26.75
2023-01-22T03:02:55.230Z,26.67
2023-01-22T03:05:21.787Z,26.30
2023-01-22T03:07:48.457Z,29.23
2023-01-22T03:10:18.507Z,31.40
2023-01-22T03:13:05.871Z,31.90
2023-01-22T03:15:51.652Z,29.70
2023-01-22T03:18:37.607Z,27.52
2023-01-22T03:21:16.402Z,30.17
2023-01-22T03:23:45.802Z,27.92
2023-01-22T03:26:12.497Z,29.05
2023-01-22T03:28:39.352Z,24.17
2023-01-22T03:31:07.749Z,27.92
2023-01-22T03:33:35.260Z,29.17
2023-01-22T03:36:08.456Z,28.75
2023-01-22T03:38:36.687Z,27.85
2023-01-22T03:41:11.257Z,26.20
2023-01-22T03:43:41.796Z,27.55
2023-01-22T03:46:14.933Z,28.40
2023-01-22T03:48:43.903Z,27.95
2023-01-22T03:51:15.585Z,27.33
2023-01-22T03:53:44.093Z,29.80
2023-01-22T03:56:12.880Z,26.45
2023-01-22T03:58:39.485Z,29.90
2023-01-22T04:01:10.130Z,24.25
2023-01-22T04:03:37.147Z,26.17
2023-01-22T04:06:06.815Z,23.58
2023-01-22T04:08:35.501Z,26.52
2023-01-22T04:11:03.343Z,27.02
2023-01-22T04:13:32.039Z,28.80
2023-01-22T04:15:59.518Z,25.42
2023-01-22T04:18:44.787Z,25.48
2023-01-22T04:21:25.147Z,23.80
2023-01-22T04:23:53.817Z,24.25
2023-01-22T04:26:20.307Z,24.60
2023-01-22T04:28:47.730Z,22.92
2023-01-22T04:31:15.056Z,22.02
2023-01-22T04:33:44.911Z,22.85
2023-01-22T04:36:21.491Z,21.92
2023-01-22T04:38:48.084Z,24.50
2023-01-22T04:41:14.704Z,27.02
2023-01-22T04:43:41.392Z,20.80
2023-01-22T04:46:08.286Z,22.83
2023-01-22T04:48:35.027Z,19.67
2023-01-22T04:51:01.699Z,24.10
2023-01-22T04:53:30.587Z,20.35
2023-01-22T04:55:57.309Z,21.45
2023-01-22T04:58:25.195Z,21.42
2023-01-22T05:00:56.189Z,20.95
2023-01-22T05:03:23.426Z,18.02
2023-01-22T05:05:50.529Z,18.13
2023-01-22T05:08:18.056Z,18.40
2023-01-22T05:10:45.306Z,16.80
2023-01-22T05:15:44.357Z,19.52
2023-01-22T05:18:12.778Z,19.92
2023-01-22T05:20:46.424Z,18.13
2023-01-22T05:23:13.544Z,18.38
2023-01-22T05:25:48.244Z,15.98
2023-01-22T05:28:16.405Z,18.45
2023-01-22T05:31:10.924Z,20.10
2023-01-22T05:33:57.865Z,20.48
2023-01-22T05:36:24.575Z,18.75
2023-01-22T05:38:53.879Z,16.75
2023-01-22T05:41:21.068Z,20.10
2023-01-22T05:43:48.375Z,16.42
2023-01-22T05:46:19.755Z,17.40
2023-01-22T05:48:49.159Z,16.02
2023-01-22T05:51:20.784Z,15.60
2023-01-22T05:53:47.398Z,16.83
2023-01-22T05:56:15.174Z,20.27
2023-01-22T05:58:41.737Z,19.08
2023-01-22T06:01:09.396Z,20.23
2023-01-22T06:03:41.122Z,13.18
2023-01-22T06:06:10.683Z,17.38
2023-01-22T06:08:37.732Z,19.05
2023-01-22T06:11:05.644Z,19.02
2023-01-22T06:13:33.820Z,18.65
2023-01-22T06:16:09.907Z,18.45
2023-01-22T06:18:55.084Z,20.17
2023-01-22T06:21:24.757Z,18.90
2023-01-22T06:23:52.041Z,18.70
2023-01-22T06:26:18.696Z,17.80
2023-01-22T06:28:46.490Z,20.77
2023-01-22T06:31:14.056Z,24.55
2023-01-22T06:33:41.500Z,21.60
2023-01-22T06:36:09.005Z,22.83
2023-01-22T06:38:37.073Z,19.55
2023-01-22T06:41:05.359Z,20.05
2023-01-22T06:43:32.808Z,20.30
2023-01-22T06:45:59.531Z,21.85
2023-01-22T06:48:47.059Z,22.27
2023-01-22T06:51:14.686Z,22.05
2023-01-22T06:53:41.419Z,22.17
2023-01-22T06:56:09.081Z,21.98
2023-01-22T06:58:35.711Z,22.55
2023-01-22T07:01:03.104Z,18.92
2023-01-22T07:03:29.949Z,21.02
2023-01-22T07:05:58.966Z,20.25
2023-01-22T07:08:28.140Z,20.50
2023-01-22T07:10:54.738Z,21.15
2023-01-22T07:13:21.527Z,19.48
2023-01-22T07:15:48.220Z,17.65
2023-01-22T07:18:15.629Z,20.40
2023-01-22T07:20:42.500Z,17.70
2023-01-22T07:23:09.542Z,15.38
2023-01-22T07:25:36.218Z,17.42
2023-01-22T07:28:03.561Z,17.35
2023-01-22T07:30:30.683Z,19.48
2023-01-22T07:33:04.174Z,14.10
2023-01-22T07:35:31.347Z,18.27
2023-01-22T07:37:59.179Z,14.05
2023-01-22T07:40:26.572Z,15.85
2023-01-22T07:42:54.406Z,16.58
2023-01-22T07:45:24.680Z,15.00
2023-01-22T07:47:56.851Z,15.50
2023-01-22T07:50:25.819Z,14.88
2023-01-22T07:52:52.965Z,17.92
2023-01-22T07:55:19.611Z,15.07
2023-01-22T07:57:46.307Z,15.15
2023-01-22T08:00:15.756Z,16.55
2023-01-22T08:02:42.821Z,18.33
2023-01-22T08:05:13.235Z,15.27
2023-01-22T08:07:39.857Z,16.45
2023-01-22T08:10:07.059Z,13.93
2023-01-22T08:12:33.704Z,16.35
2023-01-22T08:15:00.351Z,14.00
2023-01-22T08:17:26.918Z,13.45
2023-01-22T08:19:53.607Z,14.70
2023-01-22T08:22:20.617Z,14.55
2023-01-22T08:24:47.173Z,16.77
2023-01-22T08:27:13.893Z,13.27
2023-01-22T08:29:40.461Z,11.20
2023-01-22T08:32:07.172Z,14.82
2023-01-22T08:34:33.826Z,14.02
2023-01-22T08:37:00.430Z,15.25
2023-01-22T08:39:26.945Z,11.95
2023-01-22T08:41:57.467Z,13.35
2023-01-22T08:44:24.685Z,12.52
2023-01-22T08:46:51.685Z,12.32
2023-01-22T08:49:18.451Z,15.23
2023-01-22T08:51:45.112Z,11.55
2023-01-22T08:54:11.620Z,13.43
2023-01-22T08:56:38.201Z,13.55
2023-01-22T08:59:06.324Z,11.68
2023-01-22T09:01:34.155Z,10.45
2023-01-22T09:04:00.925Z,12.48
2023-01-22T09:06:27.507Z,12.52
2023-01-22T09:08:55.280Z,16.67
2023-01-22T09:11:21.935Z,13.38
2023-01-22T09:13:48.419Z,11.77
2023-01-22T09:16:15.026Z,11.32
2023-01-22T09:18:41.588Z,11.15
2023-01-22T09:21:08.449Z,11.65
2023-01-22T09:23:34.986Z,13.70
2023-01-22T09:26:02.019Z,12.18
2023-01-22T09:28:28.629Z,10.45
2023-01-22T09:30:55.298Z,10.82
2023-01-22T09:33:21.898Z,11.50
2023-01-22T09:35:48.529Z,11.10
2023-01-22T09:38:15.816Z,9.18
2023-01-22T09:40:48.482Z,10.35
2023-01-22T09:46:01.725Z,13.15
2023-01-22T09:48:39.934Z,9.83
2023-01-22T09:51:06.855Z,9.88
2023-01-22T09:53:34.860Z,11.40
2023-01-22T09:56:06.011Z,9.45
2023-01-22T09:58:35.047Z,11.43
2023-01-22T10:01:04.590Z,9.02
2023-01-22T10:03:44.069Z,10.98
2023-01-22T10:06:14.034Z,13.77
2023-01-22T10:09:19.460Z,9.95
2023-01-22T10:11:51.794Z,9.95
2023-01-22T10:14:21.464Z,9.43
2023-01-22T10:16:49.143Z,12.63
2023-01-22T10:19:36.902Z,11.73
2023-01-22T10:22:10.924Z,10.55
2023-01-22T10:24:37.475Z,9.65
2023-01-22T10:27:16.819Z,10.23
2023-01-22T10:29:46.316Z,11.35
2023-01-22T10:32:21.362Z,12.65
2023-01-22T10:35:21.195Z,10.45
2023-01-22T10:37:52.930Z,10.07
2023-01-22T10:40:35.738Z,7.23
2023-01-22T10:45:39.126Z,10.80
2023-01-22T10:48:15.674Z,8.15
2023-01-22T10:50:43.410Z,13.85
2023-01-22T10:53:21.112Z,11.68
2023-01-22T10:55:56.599Z,8.55
2023-01-22T10:58:26.090Z,8.35
2023-01-22T11:01:04.284Z,11.98
2023-01-22T11:03:36.908Z,10.20
2023-01-22T11:08:52.554Z,10.13
2023-01-22T11:11:26.016Z,11.40
2023-01-22T11:14:04.369Z,9.07
2023-01-22T11:16:35.977Z,10.60
2023-01-22T11:19:21.661Z,7.20
2023-01-22T11:21:56.383Z,13.52
2023-01-22T11:24:47.318Z,9.35
2023-01-22T11:27:14.276Z,10.40
2023-01-22T11:29:49.713Z,10.00
2023-01-22T11:32:52.885Z,8.40
2023-01-22T11:38:10.062Z,10.40
2023-01-22T11:40:48.413Z,7.97
2023-01-22T11:43:32.453Z,8.68
2023-01-22T11:46:05.075Z,8.63
2023-01-22T11:51:40.679Z,8.32
2023-01-22T11:54:42.465Z,11.25
2023-01-22T11:57:24.470Z,11.57
2023-01-22T12:00:10.216Z,8.98
2023-01-22T12:03:04.675Z,11.90
2023-01-22T12:05:43.694Z,11.85
2023-01-22T12:08:19.175Z,9.55
2023-01-22T12:11:11.206Z,9.23
2023-01-22T12:13:49.785Z,11.88
2023-01-22T12:16:27.845Z,13.23
2023-01-22T12:19:03.258Z,9.35
2023-01-22T12:21:40.354Z,10.23
2023-01-22T12:24:23.662Z,9.93
2023-01-22T12:27:02.608Z,12.35
2023-01-22T12:30:14.417Z,11.77
2023-01-22T12:32:45.350Z,11.20
2023-01-22T12:35:17.363Z,13.13
2023-01-22T12:37:54.848Z,12.95
2023-01-22T12:40:31.820Z,9.63
2023-01-22T12:43:03.889Z,11.32
2023-01-22T12:45:37.597Z,9.60
2023-01-22T12:48:20.539Z,10.30
2023-01-22T12:50:53.223Z,12.55
2023-01-22T12:53:26.707Z,11.07
2023-01-22T12:56:01.040Z,13.43
2023-01-22T12:58:30.341Z,11.27
2023-01-22T13:01:08.983Z,15.00
2023-01-22T13:03:36.918Z,9.70
2023-01-22T13:06:17.537Z,12.07
2023-01-22T13:08:54.607Z,17.17
2023-01-22T13:11:31.153Z,12.63
2023-01-22T13:14:14.721Z,12.77
2023-01-22T13:16:51.809Z,11.73
2023-01-22T13:19:26.323Z,17.52
2023-01-22T13:21:53.555Z,14.80
2023-01-22T13:24:21.493Z,16.10
2023-01-22T13:26:58.364Z,12.07
2023-01-22T13:29:34.032Z,15.23
2023-01-22T13:32:06.390Z,14.80
2023-01-22T13:34:32.967Z,12.70
2023-01-22T13:36:59.503Z,15.85
2023-01-22T13:39:29.663Z,14.43
2023-01-22T13:42:05.723Z,14.95
2023-01-22T13:44:41.493Z,14.52
2023-01-22T13:47:08.103Z,11.50
2023-01-22T13:49:42.369Z,15.98
2023-01-22T13:52:19.088Z,15.35
2023-01-22T13:55:08.360Z,16.95
2023-01-22T13:57:34.885Z,12.88
2023-01-22T14:00:03.741Z,12.60
2023-01-22T14:02:35.119Z,14.10
2023-01-22T14:05:02.100Z,17.33
2023-01-22T14:07:34.228Z,13.07
2023-01-22T14:10:16.364Z,12.02
2023-01-22T14:12:43.151Z,13.77
2023-01-22T14:15:15.358Z,14.38
2023-01-22T14:17:42.020Z,17.15
2023-01-22T14:20:09.392Z,12.35
2023-01-22T14:22:35.960Z,16.27
2023-01-22T14:25:02.657Z,12.63
2023-01-22T14:27:40.768Z,14.60
2023-01-22T14:30:08.812Z,16.50
2023-01-22T14:32:35.273Z,15.60
2023-01-22T14:35:01.878Z,13.43
2023-01-22T14:37:28.436Z,15.32
2023-01-22T14:39:54.940Z,18.38
2023-01-22T14:42:24.973Z,15.85
2023-01-22T14:44:51.454Z,17.63
2023-01-22T14:47:17.934Z,15.98
2023-01-22T14:49:44.411Z,17.10
2023-01-22T14:52:10.908Z,16.48
2023-01-22T14:54:37.467Z,14.15
2023-01-22T14:57:04.130Z,16.00
2023-01-22T14:59:30.723Z,19.15
2023-01-22T15:01:57.295Z,14.65
2023-01-22T15:04:23.842Z,16.40
2023-01-22T15:06:50.326Z,16.05
2023-01-22T15:09:16.773Z,16.00
2023-01-22T15:11:43.284Z,17.85
2023-01-22T15:14:10.039Z,15.82
2023-01-22T15:16:38.324Z,18.13
2023-01-22T15:19:04.846Z,15.52
2023-01-22T15:21:31.418Z,17.88
2023-01-22T15:23:57.903Z,15.95
2023-01-22T15:26:24.461Z,20.63
2023-01-22T15:28:51.027Z,14.73
2023-01-22T15:31:17.586Z,15.70
2023-01-22T15:33:44.124Z,17.63
2023-01-22T15:36:10.720Z,19.25
2023-01-22T15:38:37.233Z,18.55
2023-01-22T15:41:17.485Z,18.02
2023-01-22T15:43:44.143Z,17.50
2023-01-22T15:46:10.770Z,23.33
2023-01-22T15:48:38.178Z,18.85
2023-01-22T15:51:09.787Z,18.02
2023-01-22T15:53:36.992Z,23.15
2023-01-22T15:56:04.127Z,24.75
2023-01-22T15:58:31.893Z,20.25
2023-01-22T16:00:58.729Z,20.02
2023-01-22T16:03:25.261Z,19.40
2023-01-22T16:05:51.776Z,21.67
2023-01-22T16:08:18.252Z,20.13
2023-01-22T16:10:44.718Z,17.10
2023-01-22T16:13:11.170Z,18.45
2023-01-22T16:15:37.702Z,19.58
2023-01-22T16:18:04.284Z,15.52
2023-01-22T16:20:30.756Z,17.50
2023-01-22T16:22:57.281Z,18.70
2023-01-22T16:25:23.909Z,18.70
2023-01-22T16:27:50.496Z,20.58
2023-01-22T16:30:17.740Z,18.08
2023-01-22T16:32:46.065Z,19.48
2023-01-22T16:35:12.640Z,19.95
2023-01-22T16:37:39.247Z,19.10
2023-01-22T16:40:07.296Z,17.80
2023-01-22T16:42:35.679Z,22.02
2023-01-22T16:45:02.423Z,16.45
2023-01-22T16:47:28.909Z,19.00
2023-01-22T16:49:55.406Z,18.17
2023-01-22T16:52:23.162Z,18.70
2023-01-22T16:54:50.379Z,19.92
2023-01-22T16:57:19.251Z,22.88
2023-01-22T16:59:46.151Z,22.10
2023-01-22T17:02:14.983Z,20.02
2023-01-22T17:04:41.676Z,20.00
2023-01-22T17:07:15.330Z,25.02
2023-01-22T17:09:47.530Z,19.90
2023-01-22T17:12:14.119Z,17.65
2023-01-22T17:14:40.988Z,19.27
2023-01-22T17:17:08.716Z,21.23
2023-01-22T17:19:36.268Z,24.52
2023-01-22T17:22:03.285Z,20.75
2023-01-22T17:24:31.061Z,19.17
2023-01-22T17:26:58.234Z,19.75
2023-01-22T17:29:24.924Z,20.27
2023-01-22T17:31:52.261Z,17.38
2023-01-22T17:34:19.024Z,18.25
2023-01-22T17:36:45.564Z,18.02
2023-01-22T17:39:15.766Z,21.75
2023-01-22T17:41:43.325Z,20.85
2023-01-22T17:44:10.543Z,19.75
2023-01-22T17:46:37.292Z,20.27
2023-01-22T17:49:04.768Z,24.33
2023-01-22T17:51:33.661Z,23.55
2023-01-22T17:54:02.136Z,22.15
2023-01-22T17:56:34.662Z,21.50
2023-01-22T17:59:03.875Z,21.60
2023-01-22T18:01:32.415Z,21.92
2023-01-22T18:04:02.769Z,20.23
2023-01-22T18:06:29.670Z,21.70
2023-01-22T18:08:57.428Z,24.58
2023-01-22T18:11:29.833Z,21.17
2023-01-22T18:14:15.714Z,21.40
2023-01-22T18:16:42.432Z,24.75
2023-01-22T18:19:09.509Z,21.63
2023-01-22T18:21:38.269Z,22.48
2023-01-22T18:24:06.832Z,20.42
2023-01-22T18:26:34.391Z,24.80
2023-01-22T18:29:01.426Z,22.60
2023-01-22T18:31:29.662Z,23.25
2023-01-22T18:34:00.665Z,22.02
2023-01-22T18:36:29.893Z,22.98
2023-01-22T18:39:03.577Z,23.05
2023-01-22T18:41:30.903Z,22.73
2023-01-22T18:43:59.708Z,19.35
2023-01-22T18:46:33.166Z,25.88
2023-01-22T18:49:02.064Z,26.83
2023-01-22T18:51:29.651Z,20.80
2023-01-22T18:53:56.966Z,25.95
2023-01-22T18:56:25.587Z,26.63
2023-01-22T18:58:56.303Z,24.42
2023-01-22T19:01:25.974Z,23.20
2023-01-22T19:04:04.255Z,25.08
2023-01-22T19:06:35.145Z,26.63
2023-01-22T19:09:13.861Z,22.00
2023-01-22T19:11:46.999Z,26.55
2023-01-22T19:14:16.693Z,28.55
2023-01-22T19:16:44.919Z,27.10
2023-01-22T19:19:13.516Z,24.70
2023-01-22T19:21:48.725Z,25.08
2023-01-22T19:24:19.294Z,28.67
2023-01-22T19:26:46.836Z,26.90
2023-01-22T19:29:17.461Z,25.48
2023-01-22T19:31:48.400Z,26.73
2023-01-22T19:34:23.492Z,24.20
2023-01-22T19:36:52.958Z,27.63
2023-01-22T19:39:20.265Z,32.53
2023-01-22T19:41:47.363Z,32.85
2023-01-22T19:44:14.021Z,26.60
2023-01-22T19:46:40.881Z,26.02
2023-01-22T19:49:07.837Z,28.83
2023-01-22T19:51:34.865Z,22.92
2023-01-22T19:54:02.443Z,26.95
2023-01-22T19:56:33.518Z,25.90
2023-01-22T19:59:03.337Z,25.60
2023-01-22T20:01:30.172Z,30.45
2023-01-22T20:03:56.733Z,27.30
2023-01-22T20:06:23.881Z,26.75
2023-01-22T20:08:51.369Z,27.30
2023-01-22T20:11:18.602Z,28.60
2023-01-22T20:13:45.265Z,33.38
2023-01-22T20:16:22.646Z,31.92
2023-01-22T20:18:50.214Z,28.27
2023-01-22T20:21:18.270Z,29.75
2023-01-22T20:23:46.685Z,29.90
2023-01-22T20:26:14.607Z,34.10
2023-01-22T20:28:41.560Z,34.50
2023-01-22T20:31:12.811Z,29.10
2023-01-22T20:33:39.515Z,32.78
2023-01-22T20:36:11.729Z,26.98
2023-01-22T20:38:38.257Z,29.77
2023-01-22T20:41:09.158Z,32.38
2023-01-22T20:43:40.624Z,33.30
2023-01-22T20:46:13.429Z,27.98
2023-01-22T20:48:40.851Z,30.70
2023-01-22T20:51:15.296Z,35.90
2023-01-22T20:53:42.729Z,31.65
2023-01-22T20:56:13.714Z,30.25
2023-01-22T20:58:40.945Z,29.42
2023-01-22T21:01:16.710Z,32.70
2023-01-22T21:03:44.047Z,30.20
2023-01-22T21:06:14.178Z,31.25
2023-01-22T21:08:42.121Z,32.20
2023-01-22T21:11:11.604Z,25.88
2023-01-22T21:13:38.405Z,29.30
2023-01-22T21:16:10.163Z,34.28
2023-01-22T21:18:41.334Z,29.97
2023-01-22T21:21:08.895Z,29.75
2023-01-22T21:23:37.227Z,30.73
2023-01-22T21:26:05.661Z,29.95
2023-01-22T21:28:33.091Z,24.90
2023-01-22T21:31:20.392Z,26.98
2023-01-22T21:33:48.683Z,26.77
2023-01-22T21:36:18.232Z,26.90
2023-01-22T21:38:47.420Z,25.80
2023-01-22T21:41:16.599Z,31.08
2023-01-22T21:44:03.896Z,28.90
2023-01-22T21:46:39.311Z,28.35
2023-01-22T21:49:16.746Z,33.80
2023-01-22T21:51:55.763Z,29.95
2023-01-22T21:54:29.738Z,30.92
2023-01-22T21:56:56.829Z,31.63
2023-01-22T21:59:23.569Z,31.00
2023-01-22T22:01:52.110Z,26.58
2023-01-22T22:04:19.180Z,35.63
2023-01-22T22:06:45.715Z,25.30
2023-01-22T22:09:16.051Z,29.17
2023-01-22T22:11:43.344Z,28.67
2023-01-22T22:14:17.823Z,28.88
2023-01-22T22:16:44.659Z,30.80
2023-01-22T22:19:11.851Z,27.38
2023-01-22T22:21:38.777Z,29.13
2023-01-22T22:24:05.799Z,28.13
2023-01-22T22:26:32.906Z,29.75
2023-01-22T22:28:59.436Z,30.40
2023-01-22T22:31:26.211Z,32.28
2023-01-22T22:33:55.345Z,28.17
2023-01-22T22:36:24.480Z,28.88
2023-01-22T22:38:51.552Z,27.15
2023-01-22T22:41:24.024Z,32.90
2023-01-22T22:43:52.992Z,28.20
2023-01-22T22:46:30.328Z,27.77
2023-01-22T22:48:59.644Z,28.17
2023-01-22T22:51:32.045Z,28.95
2023-01-22T22:54:02.542Z,24.33
2023-01-22T22:56:29.881Z,25.52
2023-01-22T22:58:59.275Z,24.00
2023-01-22T23:01:26.885Z,27.58
2023-01-22T23:03:53.905Z,22.55
2023-01-22T23:06:24.394Z,22.13
2023-01-22T23:08:53.548Z,27.77
2023-01-22T23:11:22.988Z,31.48
2023-01-22T23:13:50.579Z,29.02
2023-01-22T23:16:19.618Z,31.23
2023-01-22T23:18:48.286Z,27.48
2023-01-22T23:21:17.843Z,27.05
2023-01-22T23:23:45.289Z,28.42
2023-01-22T23:26:17.634Z,27.23
2023-01-22T23:28:44.562Z,27.55
2023-01-22T23:31:14.642Z,25.92
2023-01-22T23:33:41.732Z,24.55
2023-01-22T23:36:11.316Z,24.73
2023-01-22T23:38:38.688Z,28.30
2023-01-22T23:41:09.285Z,31.92
2023-01-22T23:43:36.209Z,36.53
2023-01-22T23:46:07.644Z,28.27
2023-01-22T23:48:34.427Z,30.35
2023-01-22T23:51:01.216Z,28.35
2023-01-22T23:53:28.250Z,31.38
2023-01-22T23:56:01.811Z,27.65
2023-01-22T23:58:28.759Z,28.98
